sensor_id;sensor_type;location;lat;lon;timestamp;P1;durP1;ratioP1;P2;durP2;ratioP2
51616;SDS011;37697;52.588;13.394;2022-12-18T00:03:40;35.77;;;15.53;;
51616;SDS011;37697;52.588;13.394;2022-12-18T00:08:41;31.47;;;13.50;;
51616;SDS011;37697;52.588;13.394;2022-12-18T00:13:44;34.20;;;15.73;;
51616;SDS011;37697;52.588;13.394;2022-12-18T00:18:45;41.13;;;16.62;;
51616;SDS011;37697;52.588;13.394;2022-12-18T00:23:47;33.53;;;14.38;;
51616;SDS011;37697;52.588;13.394;2022-12-18T00:28:49;34.90;;;14.60;;
51616;SDS011;37697;52.588;13.394;2022-12-18T00:33:53;37.40;;;16.23;;
51616;SDS011;37697;52.588;13.394;2022-12-18T00:38:56;30.97;;;14.70;;
51616;SDS011;37697;52.588;13.394;2022-12-18T00:43:58;32.97;;;15.13;;
51616;SDS011;37697;52.588;13.394;2022-12-18T00:48:59;30.90;;;13.57;;
51616;SDS011;37697;52.588;13.394;2022-12-18T00:54:00;29.73;;;12.23;;
51616;SDS011;37697;52.588;13.394;2022-12-18T00:59:00;37.73;;;16.40;;
51616;SDS011;37697;52.588;13.394;2022-12-18T01:04:02;41.30;;;16.77;;
51616;SDS011;37697;52.588;13.394;2022-12-18T01:09:04;36.42;;;14.87;;
51616;SDS011;37697;52.588;13.394;2022-12-18T01:14:04;24.73;;;11.53;;
51616;SDS011;37697;52.588;13.394;2022-12-18T01:19:05;30.50;;;12.43;;
51616;SDS011;37697;52.588;13.394;2022-12-18T01:24:07;41.53;;;19.70;;
51616;SDS011;37697;52.588;13.394;2022-12-18T01:29:07;38.20;;;15.87;;
51616;SDS011;37697;52.588;13.394;2022-12-18T01:34:08;31.87;;;14.07;;
51616;SDS011;37697;52.588;13.394;2022-12-18T01:39:10;27.95;;;12.55;;
51616;SDS011;37697;52.588;13.394;2022-12-18T01:49:57;33.40;;;14.83;;
51616;SDS011;37697;52.588;13.394;2022-12-18T01:55:03;37.30;;;14.73;;
51616;SDS011;37697;52.588;13.394;2022-12-18T02:00:13;30.50;;;13.53;;
51616;SDS011;37697;52.588;13.394;2022-12-18T02:05:27;29.87;;;13.60;;
51616;SDS011;37697;52.588;13.394;2022-12-18T02:16:24;33.02;;;13.58;;
51616;SDS011;37697;52.588;13.394;2022-12-18T02:21:39;36.63;;;16.83;;
51616;SDS011;37697;52.588;13.394;2022-12-18T02:27:00;42.30;;;18.90;;
51616;SDS011;37697;52.588;13.394;2022-12-18T02:32:06;38.07;;;16.93;;
51616;SDS011;37697;52.588;13.394;2022-12-18T02:37:12;40.70;;;19.13;;
51616;SDS011;37697;52.588;13.394;2022-12-18T02:42:16;39.43;;;16.33;;
51616;SDS011;37697;52.588;13.394;2022-12-18T02:47:20;43.23;;;18.20;;
51616;SDS011;37697;52.588;13.394;2022-12-18T03:03:09;45.97;;;19.60;;
51616;SDS011;37697;52.588;13.394;2022-12-18T03:08:19;44.63;;;18.97;;
51616;SDS011;37697;52.588;13.394;2022-12-18T03:13:35;43.23;;;17.57;;
51616;SDS011;37697;52.588;13.394;2022-12-18T03:18:48;40.53;;;15.77;;
51616;SDS011;37697;52.588;13.394;2022-12-18T03:23:57;48.57;;;18.70;;
51616;SDS011;37697;52.588;13.394;2022-12-18T03:29:09;45.63;;;18.40;;
51616;SDS011;37697;52.588;13.394;2022-12-18T03:34:19;40.77;;;16.33;;
51616;SDS011;37697;52.588;13.394;2022-12-18T03:39:23;42.40;;;17.00;;
51616;SDS011;37697;52.588;13.394;2022-12-18T03:49:50;54.63;;;19.80;;
51616;SDS011;37697;52.588;13.394;2022-12-18T03:55:05;58.40;;;21.73;;
51616;SDS011;37697;52.588;13.394;2022-12-18T04:00:13;58.83;;;23.90;;
51616;SDS011;37697;52.588;13.394;2022-12-18T04:05:17;63.80;;;24.43;;
51616;SDS011;37697;52.588;13.394;2022-12-18T04:10:21;57.80;;;22.50;;
51616;SDS011;37697;52.588;13.394;2022-12-18T04:15:22;56.80;;;20.00;;
51616;SDS011;37697;52.588;13.394;2022-12-18T04:20:22;52.33;;;21.43;;
51616;SDS011;37697;52.588;13.394;2022-12-18T04:25:23;49.30;;;19.93;;
51616;SDS011;37697;52.588;13.394;2022-12-18T04:30:24;41.50;;;17.03;;
51616;SDS011;37697;52.588;13.394;2022-12-18T04:35:24;47.57;;;19.20;;
51616;SDS011;37697;52.588;13.394;2022-12-18T04:40:25;48.85;;;19.75;;
51616;SDS011;37697;52.588;13.394;2022-12-18T04:45:26;40.67;;;15.47;;
51616;SDS011;37697;52.588;13.394;2022-12-18T04:50:27;33.43;;;13.20;;
51616;SDS011;37697;52.588;13.394;2022-12-18T04:55:28;46.37;;;18.30;;
51616;SDS011;37697;52.588;13.394;2022-12-18T05:00:28;38.27;;;15.10;;
51616;SDS011;37697;52.588;13.394;2022-12-18T05:10:30;39.47;;;16.00;;
51616;SDS011;37697;52.588;13.394;2022-12-18T05:15:31;43.10;;;16.63;;
51616;SDS011;37697;52.588;13.394;2022-12-18T05:20:32;50.12;;;17.82;;
51616;SDS011;37697;52.588;13.394;2022-12-18T05:25:33;40.33;;;17.30;;
51616;SDS011;37697;52.588;13.394;2022-12-18T05:30:34;49.90;;;19.23;;
51616;SDS011;37697;52.588;13.394;2022-12-18T05:35:35;43.00;;;17.03;;
51616;SDS011;37697;52.588;13.394;2022-12-18T05:40:35;39.80;;;15.07;;
51616;SDS011;37697;52.588;13.394;2022-12-18T05:45:37;44.70;;;17.50;;
51616;SDS011;37697;52.588;13.394;2022-12-18T05:50:39;40.33;;;15.10;;
51616;SDS011;37697;52.588;13.394;2022-12-18T05:55:42;34.07;;;15.03;;
51616;SDS011;37697;52.588;13.394;2022-12-18T06:00:44;30.90;;;13.98;;
51616;SDS011;37697;52.588;13.394;2022-12-18T06:05:46;30.30;;;12.93;;
51616;SDS011;37697;52.588;13.394;2022-12-18T06:10:49;34.50;;;14.73;;
51616;SDS011;37697;52.588;13.394;2022-12-18T06:15:51;41.47;;;16.67;;
51616;SDS011;37697;52.588;13.394;2022-12-18T06:20:55;42.13;;;15.73;;
51616;SDS011;37697;52.588;13.394;2022-12-18T06:25:58;45.03;;;17.23;;
51616;SDS011;37697;52.588;13.394;2022-12-18T06:31:07;46.00;;;18.10;;
51616;SDS011;37697;52.588;13.394;2022-12-18T06:36:10;52.10;;;18.60;;
51616;SDS011;37697;52.588;13.394;2022-12-18T06:41:15;49.97;;;19.50;;
51616;SDS011;37697;52.588;13.394;2022-12-18T06:46:18;51.93;;;18.97;;
51616;SDS011;37697;52.588;13.394;2022-12-18T06:51:20;45.97;;;18.20;;
51616;SDS011;37697;52.588;13.394;2022-12-18T06:56:22;49.40;;;20.70;;
51616;SDS011;37697;52.588;13.394;2022-12-18T07:01:23;53.20;;;20.60;;
51616;SDS011;37697;52.588;13.394;2022-12-18T07:06:24;49.13;;;18.40;;
51616;SDS011;37697;52.588;13.394;2022-12-18T07:11:26;52.53;;;19.77;;
51616;SDS011;37697;52.588;13.394;2022-12-18T07:16:27;47.47;;;17.87;;
51616;SDS011;37697;52.588;13.394;2022-12-18T07:21:30;53.10;;;20.83;;
51616;SDS011;37697;52.588;13.394;2022-12-18T07:26:31;54.50;;;22.17;;
51616;SDS011;37697;52.588;13.394;2022-12-18T07:31:31;52.80;;;21.03;;
51616;SDS011;37697;52.588;13.394;2022-12-18T07:36:32;36.97;;;14.90;;
51616;SDS011;37697;52.588;13.394;2022-12-18T07:41:33;56.83;;;20.90;;
51616;SDS011;37697;52.588;13.394;2022-12-18T07:46:33;39.37;;;13.70;;
51616;SDS011;37697;52.588;13.394;2022-12-18T07:51:34;37.17;;;13.00;;
51616;SDS011;37697;52.588;13.394;2022-12-18T07:56:35;38.03;;;15.30;;
51616;SDS011;37697;52.588;13.394;2022-12-18T08:01:36;42.65;;;16.25;;
51616;SDS011;37697;52.588;13.394;2022-12-18T08:06:36;36.37;;;13.57;;
51616;SDS011;37697;52.588;13.394;2022-12-18T08:11:37;45.73;;;18.03;;
51616;SDS011;37697;52.588;13.394;2022-12-18T08:16:38;41.77;;;17.07;;
51616;SDS011;37697;52.588;13.394;2022-12-18T08:21:38;49.97;;;19.67;;
51616;SDS011;37697;52.588;13.394;2022-12-18T08:26:39;45.60;;;18.47;;
51616;SDS011;37697;52.588;13.394;2022-12-18T08:31:40;47.23;;;17.87;;
51616;SDS011;37697;52.588;13.394;2022-12-18T08:36:41;58.33;;;21.80;;
51616;SDS011;37697;52.588;13.394;2022-12-18T08:41:41;42.47;;;18.33;;
51616;SDS011;37697;52.588;13.394;2022-12-18T08:46:42;48.53;;;19.53;;
51616;SDS011;37697;52.588;13.394;2022-12-18T08:51:44;36.73;;;14.23;;
51616;SDS011;37697;52.588;13.394;2022-12-18T08:56:44;51.40;;;20.57;;
51616;SDS011;37697;52.588;13.394;2022-12-18T09:01:45;45.37;;;19.17;;
51616;SDS011;37697;52.588;13.394;2022-12-18T09:06:47;37.13;;;16.83;;
51616;SDS011;37697;52.588;13.394;2022-12-18T09:11:48;38.47;;;18.03;;
51616;SDS011;37697;52.588;13.394;2022-12-18T09:16:49;35.30;;;15.93;;
51616;SDS011;37697;52.588;13.394;2022-12-18T09:21:49;31.47;;;14.20;;
51616;SDS011;37697;52.588;13.394;2022-12-18T09:26:52;38.13;;;16.20;;
51616;SDS011;37697;52.588;13.394;2022-12-18T09:31:55;38.77;;;15.80;;
51616;SDS011;37697;52.588;13.394;2022-12-18T09:36:56;40.33;;;17.23;;
51616;SDS011;37697;52.588;13.394;2022-12-18T09:41:57;37.00;;;15.73;;
51616;SDS011;37697;52.588;13.394;2022-12-18T09:52:21;43.10;;;18.33;;
51616;SDS011;37697;52.588;13.394;2022-12-18T09:57:24;41.00;;;18.37;;
51616;SDS011;37697;52.588;13.394;2022-12-18T10:02:26;29.37;;;13.40;;
51616;SDS011;37697;52.588;13.394;2022-12-18T10:07:33;35.50;;;16.50;;
51616;SDS011;37697;52.588;13.394;2022-12-18T10:12:42;41.27;;;18.37;;
51616;SDS011;37697;52.588;13.394;2022-12-18T10:18:28;45.57;;;19.77;;
51616;SDS011;37697;52.588;13.394;2022-12-18T10:23:58;45.60;;;19.97;;
51616;SDS011;37697;52.588;13.394;2022-12-18T10:29:17;41.17;;;17.73;;
51616;SDS011;37697;52.588;13.394;2022-12-18T10:34:17;35.67;;;15.07;;
51616;SDS011;37697;52.588;13.394;2022-12-18T10:39:22;48.70;;;20.73;;
51616;SDS011;37697;52.588;13.394;2022-12-18T10:44:27;45.77;;;19.97;;
51616;SDS011;37697;52.588;13.394;2022-12-18T10:49:32;46.40;;;18.43;;
51616;SDS011;37697;52.588;13.394;2022-12-18T10:54:35;46.47;;;19.43;;
51616;SDS011;37697;52.588;13.394;2022-12-18T10:59:49;43.02;;;17.77;;
51616;SDS011;37697;52.588;13.394;2022-12-18T11:04:54;49.73;;;20.13;;
51616;SDS011;37697;52.588;13.394;2022-12-18T11:10:00;46.03;;;19.93;;
51616;SDS011;37697;52.588;13.394;2022-12-18T11:15:01;41.67;;;17.07;;
51616;SDS011;37697;52.588;13.394;2022-12-18T11:20:04;37.13;;;14.87;;
51616;SDS011;37697;52.588;13.394;2022-12-18T11:40:51;46.40;;;18.83;;
51616;SDS011;37697;52.588;13.394;2022-12-18T11:45:59;42.53;;;18.70;;
51616;SDS011;37697;52.588;13.394;2022-12-18T11:51:05;43.70;;;18.57;;
51616;SDS011;37697;52.588;13.394;2022-12-18T11:56:31;46.77;;;19.20;;
51616;SDS011;37697;52.588;13.394;2022-12-18T12:01:45;38.13;;;16.03;;
51616;SDS011;37697;52.588;13.394;2022-12-18T12:07:19;33.47;;;16.73;;
51616;SDS011;37697;52.588;13.394;2022-12-18T12:17:53;36.90;;;16.70;;
51616;SDS011;37697;52.588;13.394;2022-12-18T12:29:00;37.87;;;16.97;;
51616;SDS011;37697;52.588;13.394;2022-12-18T12:34:00;44.27;;;18.73;;
51616;SDS011;37697;52.588;13.394;2022-12-18T12:39:28;35.97;;;16.33;;
51616;SDS011;37697;52.588;13.394;2022-12-18T12:44:38;39.30;;;19.52;;
51616;SDS011;37697;52.588;13.394;2022-12-18T12:49:41;42.23;;;19.40;;
51616;SDS011;37697;52.588;13.394;2022-12-18T12:54:45;35.97;;;16.07;;
51616;SDS011;37697;52.588;13.394;2022-12-18T13:10:42;37.78;;;17.92;;
51616;SDS011;37697;52.588;13.394;2022-12-18T13:15:43;36.00;;;17.47;;
51616;SDS011;37697;52.588;13.394;2022-12-18T13:36:44;28.50;;;13.70;;
51616;SDS011;37697;52.588;13.394;2022-12-18T13:41:46;35.25;;;16.75;;
51616;SDS011;37697;52.588;13.394;2022-12-18T13:46:50;36.60;;;16.83;;
51616;SDS011;37697;52.588;13.394;2022-12-18T13:51:54;34.57;;;16.77;;
51616;SDS011;37697;52.588;13.394;2022-12-18T13:56:55;32.13;;;15.07;;
51616;SDS011;37697;52.588;13.394;2022-12-18T14:01:57;35.20;;;16.93;;
51616;SDS011;37697;52.588;13.394;2022-12-18T14:07:02;38.40;;;17.70;;
51616;SDS011;37697;52.588;13.394;2022-12-18T14:12:06;36.20;;;18.20;;
51616;SDS011;37697;52.588;13.394;2022-12-18T14:17:43;34.57;;;17.10;;
51616;SDS011;37697;52.588;13.394;2022-12-18T14:22:45;26.30;;;14.13;;
51616;SDS011;37697;52.588;13.394;2022-12-18T14:27:52;31.20;;;15.67;;
51616;SDS011;37697;52.588;13.394;2022-12-18T14:33:14;31.45;;;17.23;;
51616;SDS011;37697;52.588;13.394;2022-12-18T14:43:39;26.80;;;14.07;;
51616;SDS011;37697;52.588;13.394;2022-12-18T14:48:42;32.90;;;17.00;;
51616;SDS011;37697;52.588;13.394;2022-12-18T14:53:47;28.47;;;13.33;;
51616;SDS011;37697;52.588;13.394;2022-12-18T14:58:58;25.97;;;14.13;;
51616;SDS011;37697;52.588;13.394;2022-12-18T15:04:04;29.37;;;16.30;;
51616;SDS011;37697;52.588;13.394;2022-12-18T15:09:22;27.73;;;15.17;;
51616;SDS011;37697;52.588;13.394;2022-12-18T15:14:33;27.40;;;15.77;;
51616;SDS011;37697;52.588;13.394;2022-12-18T15:19:41;25.13;;;13.80;;
51616;SDS011;37697;52.588;13.394;2022-12-18T15:24:44;26.83;;;15.03;;
51616;SDS011;37697;52.588;13.394;2022-12-18T15:29:58;35.57;;;15.03;;
51616;SDS011;37697;52.588;13.394;2022-12-18T15:40:25;28.83;;;14.53;;
51616;SDS011;37697;52.588;13.394;2022-12-18T15:45:25;23.97;;;13.00;;
51616;SDS011;37697;52.588;13.394;2022-12-18T15:50:26;28.93;;;15.13;;
51616;SDS011;37697;52.588;13.394;2022-12-18T15:55:27;28.20;;;14.87;;
51616;SDS011;37697;52.588;13.394;2022-12-18T16:00:47;24.50;;;12.60;;
51616;SDS011;37697;52.588;13.394;2022-12-18T16:05:48;19.97;;;10.30;;
51616;SDS011;37697;52.588;13.394;2022-12-18T16:10:49;24.05;;;13.93;;
51616;SDS011;37697;52.588;13.394;2022-12-18T16:15:50;23.03;;;10.83;;
51616;SDS011;37697;52.588;13.394;2022-12-18T16:20:51;27.70;;;15.27;;
51616;SDS011;37697;52.588;13.394;2022-12-18T16:25:52;21.20;;;11.83;;
51616;SDS011;37697;52.588;13.394;2022-12-18T16:30:53;27.03;;;15.10;;
51616;SDS011;37697;52.588;13.394;2022-12-18T16:35:54;27.23;;;13.47;;
51616;SDS011;37697;52.588;13.394;2022-12-18T16:40:54;30.63;;;15.50;;
51616;SDS011;37697;52.588;13.394;2022-12-18T16:46:13;29.93;;;14.07;;
51616;SDS011;37697;52.588;13.394;2022-12-18T16:51:14;35.40;;;17.83;;
51616;SDS011;37697;52.588;13.394;2022-12-18T16:56:15;32.87;;;16.87;;
51616;SDS011;37697;52.588;13.394;2022-12-18T17:01:16;28.00;;;15.43;;
51616;SDS011;37697;52.588;13.394;2022-12-18T17:06:16;31.40;;;16.60;;
51616;SDS011;37697;52.588;13.394;2022-12-18T17:11:17;29.50;;;15.97;;
51616;SDS011;37697;52.588;13.394;2022-12-18T17:16:18;25.77;;;14.00;;
51616;SDS011;37697;52.588;13.394;2022-12-18T17:21:20;31.17;;;16.13;;
51616;SDS011;37697;52.588;13.394;2022-12-18T17:26:21;26.90;;;14.30;;
51616;SDS011;37697;52.588;13.394;2022-12-18T17:31:25;31.73;;;16.33;;
51616;SDS011;37697;52.588;13.394;2022-12-18T17:36:28;29.63;;;15.37;;
51616;SDS011;37697;52.588;13.394;2022-12-18T17:41:32;32.00;;;17.40;;
51616;SDS011;37697;52.588;13.394;2022-12-18T17:46:35;33.40;;;16.37;;
51616;SDS011;37697;52.588;13.394;2022-12-18T17:51:36;36.20;;;18.70;;
51616;SDS011;37697;52.588;13.394;2022-12-18T17:56:37;37.43;;;17.33;;
51616;SDS011;37697;52.588;13.394;2022-12-18T18:01:38;36.40;;;18.87;;
51616;SDS011;37697;52.588;13.394;2022-12-18T18:06:39;38.70;;;17.93;;
51616;SDS011;37697;52.588;13.394;2022-12-18T18:11:40;35.37;;;18.73;;
51616;SDS011;37697;52.588;13.394;2022-12-18T18:17:00;37.73;;;17.67;;
51616;SDS011;37697;52.588;13.394;2022-12-18T18:22:01;40.25;;;21.45;;
51616;SDS011;37697;52.588;13.394;2022-12-18T18:27:02;44.47;;;21.90;;
51616;SDS011;37697;52.588;13.394;2022-12-18T18:32:03;36.83;;;19.20;;
51616;SDS011;37697;52.588;13.394;2022-12-18T18:37:04;37.77;;;19.13;;
51616;SDS011;37697;52.588;13.394;2022-12-18T18:42:05;43.05;;;21.07;;
51616;SDS011;37697;52.588;13.394;2022-12-18T18:47:08;42.63;;;20.73;;
51616;SDS011;37697;52.588;13.394;2022-12-18T18:52:08;44.73;;;21.90;;
51616;SDS011;37697;52.588;13.394;2022-12-18T18:57:10;42.75;;;21.02;;
51616;SDS011;37697;52.588;13.394;2022-12-18T19:02:11;35.50;;;18.52;;
51616;SDS011;37697;52.588;13.394;2022-12-18T19:07:14;47.97;;;22.33;;
51616;SDS011;37697;52.588;13.394;2022-12-18T19:12:16;44.70;;;22.30;;
51616;SDS011;37697;52.588;13.394;2022-12-18T19:17:35;40.83;;;21.10;;
51616;SDS011;37697;52.588;13.394;2022-12-18T19:22:36;47.23;;;22.70;;
51616;SDS011;37697;52.588;13.394;2022-12-18T19:27:37;46.37;;;22.33;;
51616;SDS011;37697;52.588;13.394;2022-12-18T19:32:39;44.25;;;19.32;;
51616;SDS011;37697;52.588;13.394;2022-12-18T19:37:40;44.47;;;22.20;;
51616;SDS011;37697;52.588;13.394;2022-12-18T19:42:41;39.97;;;18.83;;
51616;SDS011;37697;52.588;13.394;2022-12-18T19:47:42;46.93;;;22.07;;
51616;SDS011;37697;52.588;13.394;2022-12-18T19:52:42;41.80;;;21.70;;
51616;SDS011;37697;52.588;13.394;2022-12-18T19:57:43;43.57;;;19.23;;
51616;SDS011;37697;52.588;13.394;2022-12-18T20:02:44;40.93;;;19.33;;
51616;SDS011;37697;52.588;13.394;2022-12-18T20:07:45;44.13;;;21.10;;
51616;SDS011;37697;52.588;13.394;2022-12-18T20:12:46;41.93;;;20.03;;
51616;SDS011;37697;52.588;13.394;2022-12-18T20:17:47;42.15;;;19.37;;
51616;SDS011;37697;52.588;13.394;2022-12-18T20:22:47;42.67;;;20.40;;
51616;SDS011;37697;52.588;13.394;2022-12-18T20:27:48;44.67;;;20.70;;
51616;SDS011;37697;52.588;13.394;2022-12-18T20:32:49;43.27;;;19.53;;
51616;SDS011;37697;52.588;13.394;2022-12-18T20:37:50;35.97;;;18.90;;
51616;SDS011;37697;52.588;13.394;2022-12-18T20:42:50;39.67;;;18.40;;
51616;SDS011;37697;52.588;13.394;2022-12-18T20:47:54;30.53;;;14.80;;
51616;SDS011;37697;52.588;13.394;2022-12-18T20:52:55;44.47;;;21.67;;
51616;SDS011;37697;52.588;13.394;2022-12-18T20:57:55;49.27;;;23.03;;
51616;SDS011;37697;52.588;13.394;2022-12-18T21:02:57;40.17;;;19.47;;
51616;SDS011;37697;52.588;13.394;2022-12-18T21:07:57;50.40;;;22.13;;
51616;SDS011;37697;52.588;13.394;2022-12-18T21:12:58;42.37;;;19.40;;
51616;SDS011;37697;52.588;13.394;2022-12-18T21:17:59;48.53;;;21.57;;
51616;SDS011;37697;52.588;13.394;2022-12-18T21:22:59;46.23;;;20.97;;
51616;SDS011;37697;52.588;13.394;2022-12-18T21:33:02;39.00;;;18.03;;
51616;SDS011;37697;52.588;13.394;2022-12-18T21:38:02;41.13;;;20.40;;
51616;SDS011;37697;52.588;13.394;2022-12-18T21:43:03;44.43;;;20.87;;
51616;SDS011;37697;52.588;13.394;2022-12-18T21:48:22;45.47;;;19.10;;
51616;SDS011;37697;52.588;13.394;2022-12-18T21:53:23;39.60;;;19.50;;
51616;SDS011;37697;52.588;13.394;2022-12-18T21:58:23;43.07;;;18.77;;
51616;SDS011;37697;52.588;13.394;2022-12-18T22:03:25;38.05;;;17.23;;
51616;SDS011;37697;52.588;13.394;2022-12-18T22:08:25;35.13;;;15.63;;
51616;SDS011;37697;52.588;13.394;2022-12-18T22:13:26;41.70;;;18.53;;
51616;SDS011;37697;52.588;13.394;2022-12-18T22:18:27;39.00;;;19.03;;
51616;SDS011;37697;52.588;13.394;2022-12-18T22:23:27;42.80;;;20.50;;
51616;SDS011;37697;52.588;13.394;2022-12-18T22:28:28;41.77;;;19.47;;
51616;SDS011;37697;52.588;13.394;2022-12-18T22:33:47;41.17;;;20.30;;
51616;SDS011;37697;52.588;13.394;2022-12-18T22:38:48;32.55;;;15.95;;
51616;SDS011;37697;52.588;13.394;2022-12-18T22:43:48;38.43;;;18.17;;
51616;SDS011;37697;52.588;13.394;2022-12-18T22:48:49;39.40;;;18.27;;
51616;SDS011;37697;52.588;13.394;2022-12-18T22:53:50;35.47;;;18.23;;
51616;SDS011;37697;52.588;13.394;2022-12-18T22:58:51;31.77;;;14.97;;
51616;SDS011;37697;52.588;13.394;2022-12-18T23:03:52;37.00;;;18.10;;
51616;SDS011;37697;52.588;13.394;2022-12-18T23:08:54;33.00;;;14.95;;
51616;SDS011;37697;52.588;13.394;2022-12-18T23:13:57;31.53;;;16.37;;
51616;SDS011;37697;52.588;13.394;2022-12-18T23:18:57;38.33;;;19.63;;
51616;SDS011;37697;52.588;13.394;2022-12-18T23:23:58;31.73;;;15.50;;
51616;SDS011;37697;52.588;13.394;2022-12-18T23:28:59;26.60;;;12.87;;
51616;SDS011;37697;52.588;13.394;2022-12-18T23:34:01;38.95;;;17.32;;
51616;SDS011;37697;52.588;13.394;2022-12-18T23:39:03;31.50;;;15.03;;
51616;SDS011;37697;52.588;13.394;2022-12-18T23:44:04;36.00;;;16.97;;
51616;SDS011;37697;52.588;13.394;2022-12-18T23:49:05;36.07;;;18.03;;
51616;SDS011;37697;52.588;13.394;2022-12-18T23:54:07;31.37;;;15.50;;
51616;SDS011;37697;52.588;13.394;2022-12-18T23:59:08;34.00;;;15.20;;
